Main page
METAR-TAF:

METAR-TAF

Airports :

Nîmes–Alès–Camargue–Cévennes Airport

Nîmes, France

latitude: 43-45N, longitude: 004-25E, elevation: 94 m

Current weather observation

The report was made 20 minutes ago, at 01:30 UTC
Wind 7 kt from the North
Temperature 23°C
Humidity 61%
Pressure 1013 hPa
Visibility 10 km or more
no clouds below 1500 m and no cumulonimbus

METAR: LFTW 150130Z AUTO 01007KT CAVOK 23/15 Q1013

Time: 03:50 (01:50 UTC)

Forecast

The report was made 11 hours and 50 minutes ago, at 14:00 UTC
Forecast valid from 14 at 15 UTC to 15 at 15 UTC
Wind 5 kt from variable directions
Visibility 10 km or more
no clouds below 1500 m and no cumulonimbus
Temporary
from 14 at 15 UTC to 14 at 20 UTC
Wind 15 kt from the Southwest with gusts up to 25 kt
Becoming
from 15 at 11 UTC to 15 at 14 UTC
Wind 15 kt from the South/Southwest

TAF: LFTW 141400Z 1415/1515 VRB05KT CAVOK TEMPO 1415/1420 22015G25KT BECMG 1511/1514 20015KT

Weather observations and forecasts of more than 4000 airports (METAR and TAF reports).

The available stations are represented by yellow and red dots on the map.

Hover mouse over dot to see the name of the station.

Then click to see weather observations and forecasts.

To change the map : click on the green buttons with a black cross to zoom in, on the green button with a dash to zoom out, or on the green arrows for adjacent maps.


METAR-TAF: